createdAt,value
2022-11-30T00:01:33.378Z,99.90
2022-11-30T00:04:00.464Z,99.90
2022-11-30T00:06:28.034Z,99.90
2022-11-30T00:08:58.559Z,99.90
2022-11-30T00:11:27.615Z,99.90
2022-11-30T00:13:54.747Z,99.90
2022-11-30T00:16:26.938Z,99.90
2022-11-30T00:18:54.005Z,99.90
2022-11-30T00:21:21.456Z,99.90
2022-11-30T00:23:48.986Z,99.90
2022-11-30T00:26:19.103Z,99.90
2022-11-30T00:28:48.808Z,99.90
2022-11-30T00:31:19.663Z,99.90
2022-11-30T00:33:46.830Z,99.90
2022-11-30T00:36:21.768Z,99.90
2022-11-30T00:38:49.922Z,99.90
2022-11-30T00:41:18.808Z,99.90
2022-11-30T00:43:46.052Z,99.90
2022-11-30T00:46:15.677Z,99.90
2022-11-30T00:48:43.014Z,99.90
2022-11-30T00:51:11.940Z,99.90
2022-11-30T00:53:40.508Z,99.90
2022-11-30T00:56:11.009Z,99.90
2022-11-30T00:58:41.064Z,99.90
2022-11-30T01:01:09.235Z,99.90
2022-11-30T01:03:36.652Z,99.90
2022-11-30T01:06:05.854Z,99.90
2022-11-30T01:08:33.881Z,99.90
2022-11-30T01:11:12.209Z,99.90
2022-11-30T01:13:39.520Z,99.90
2022-11-30T01:16:12.198Z,99.90
2022-11-30T01:18:39.794Z,99.90
2022-11-30T01:21:09.768Z,99.90
2022-11-30T01:23:36.826Z,99.90
2022-11-30T01:26:04.203Z,99.90
2022-11-30T01:28:34.294Z,99.90
2022-11-30T01:31:07.405Z,99.90
2022-11-30T01:33:35.118Z,99.90
2022-11-30T01:36:05.391Z,99.90
2022-11-30T01:38:35.161Z,99.90
2022-11-30T01:41:03.639Z,99.90
2022-11-30T01:43:44.474Z,99.90
2022-11-30T01:46:48.733Z,99.90
2022-11-30T01:49:47.207Z,99.90
2022-11-30T01:52:25.859Z,99.90
2022-11-30T01:55:20.204Z,99.90
2022-11-30T01:58:13.917Z,99.90
2022-11-30T02:00:45.139Z,99.90
2022-11-30T02:03:57.698Z,99.90
2022-11-30T02:06:29.611Z,99.90
2022-11-30T02:08:57.210Z,99.90
2022-11-30T02:11:27.601Z,99.90
2022-11-30T02:14:30.493Z,99.90
2022-11-30T02:17:03.818Z,99.90
2022-11-30T02:19:57.760Z,99.90
2022-11-30T02:22:59.991Z,99.90
2022-11-30T02:25:30.870Z,99.90
2022-11-30T02:28:13.217Z,99.90
2022-11-30T02:30:44.082Z,99.90
2022-11-30T02:33:19.462Z,99.90
2022-11-30T02:35:54.857Z,99.90
2022-11-30T02:38:27.407Z,99.90
2022-11-30T02:40:59.909Z,99.90
2022-11-30T02:43:32.226Z,99.90
2022-11-30T02:46:23.191Z,99.90
2022-11-30T02:48:59.136Z,99.90
2022-11-30T02:51:29.963Z,99.90
2022-11-30T02:53:59.736Z,99.90
2022-11-30T02:56:29.724Z,99.90
2022-11-30T02:58:56.749Z,99.90
2022-11-30T03:01:28.085Z,99.90
2022-11-30T03:03:55.450Z,99.90
2022-11-30T03:06:25.112Z,99.90
2022-11-30T03:08:52.108Z,99.90
2022-11-30T03:11:20.844Z,99.90
2022-11-30T03:13:47.840Z,99.90
2022-11-30T03:16:15.181Z,99.90
2022-11-30T03:18:42.579Z,99.90
2022-11-30T03:21:12.913Z,99.90
2022-11-30T03:23:42.645Z,99.90
2022-11-30T03:26:10.157Z,99.90
2022-11-30T03:28:39.653Z,99.90
2022-11-30T03:31:11.923Z,99.90
2022-11-30T03:33:41.383Z,99.90
2022-11-30T03:36:10.873Z,99.90
2022-11-30T03:38:38.230Z,99.90
2022-11-30T03:41:12.144Z,99.90
2022-11-30T03:43:39.460Z,99.90
2022-11-30T03:46:07.217Z,99.90
2022-11-30T03:48:37.042Z,99.90
2022-11-30T03:51:08.407Z,99.90
2022-11-30T03:53:36.028Z,99.90
2022-11-30T03:56:06.268Z,99.90
2022-11-30T03:58:34.068Z,99.90
2022-11-30T04:01:11.932Z,99.90
2022-11-30T04:03:42.848Z,99.90
2022-11-30T04:06:12.264Z,99.90
2022-11-30T04:08:40.486Z,99.90
2022-11-30T04:11:08.888Z,99.90
2022-11-30T04:13:37.941Z,99.90
2022-11-30T04:16:06.460Z,99.90
2022-11-30T04:18:35.291Z,99.90
2022-11-30T04:21:04.044Z,99.90
2022-11-30T04:23:33.680Z,99.90
2022-11-30T04:26:07.334Z,99.90
2022-11-30T04:28:37.091Z,99.90
2022-11-30T04:31:05.027Z,99.90
2022-11-30T04:33:32.487Z,99.90
2022-11-30T04:36:05.367Z,99.90
2022-11-30T04:38:36.436Z,99.90
2022-11-30T04:41:08.104Z,99.90
2022-11-30T04:43:37.811Z,99.90
2022-11-30T04:46:08.428Z,99.90
2022-11-30T04:48:35.540Z,99.90
2022-11-30T04:51:05.609Z,99.90
2022-11-30T04:53:34.087Z,99.90
2022-11-30T04:56:08.988Z,99.90
2022-11-30T04:58:39.202Z,99.90
2022-11-30T05:01:09.482Z,99.90
2022-11-30T05:03:36.715Z,99.90
2022-11-30T05:06:04.897Z,99.90
2022-11-30T05:08:32.041Z,99.90
2022-11-30T05:10:59.444Z,99.90
2022-11-30T05:13:27.015Z,99.90
2022-11-30T05:15:54.744Z,99.90
2022-11-30T05:18:22.026Z,99.90
2022-11-30T05:20:51.118Z,99.90
2022-11-30T05:23:20.982Z,99.90
2022-11-30T05:25:51.011Z,99.90
2022-11-30T05:28:18.331Z,99.90
2022-11-30T05:30:45.641Z,99.90
2022-11-30T05:33:15.294Z,99.90
2022-11-30T05:35:43.486Z,99.90
2022-11-30T05:38:10.509Z,99.90
2022-11-30T05:40:37.830Z,99.90
2022-11-30T05:43:09.635Z,99.90
2022-11-30T05:45:37.206Z,99.90
2022-11-30T05:48:04.458Z,99.90
2022-11-30T05:50:32.040Z,99.90
2022-11-30T05:53:01.517Z,99.90
2022-11-30T05:55:29.521Z,99.90
2022-11-30T05:57:56.785Z,99.90
2022-11-30T06:00:24.372Z,99.90
2022-11-30T06:02:57.613Z,99.90
2022-11-30T06:05:26.807Z,99.90
2022-11-30T06:07:54.653Z,99.90
2022-11-30T06:10:22.189Z,99.90
2022-11-30T06:12:49.298Z,99.90
2022-11-30T06:15:18.941Z,99.90
2022-11-30T06:17:46.258Z,99.90
2022-11-30T06:20:14.153Z,99.90
2022-11-30T06:22:44.290Z,99.90
2022-11-30T06:25:14.160Z,99.90
2022-11-30T06:27:41.495Z,99.90
2022-11-30T06:30:09.680Z,99.90
2022-11-30T06:32:36.846Z,99.90
2022-11-30T06:35:04.498Z,99.90
2022-11-30T06:37:34.817Z,99.90
2022-11-30T06:40:08.320Z,99.90
2022-11-30T06:42:38.716Z,99.90
2022-11-30T06:45:07.450Z,99.90
2022-11-30T06:47:37.077Z,99.90
2022-11-30T06:50:07.997Z,99.90
2022-11-30T06:52:35.184Z,99.90
2022-11-30T06:55:05.198Z,99.90
2022-11-30T06:57:32.581Z,99.90
2022-11-30T07:00:00.155Z,99.90
2022-11-30T07:02:27.430Z,99.90
2022-11-30T07:04:55.082Z,99.90
2022-11-30T07:07:24.652Z,99.90
2022-11-30T07:09:52.047Z,99.90
2022-11-30T07:12:19.363Z,99.90
2022-11-30T07:14:49.497Z,99.90
2022-11-30T07:17:19.807Z,99.90
2022-11-30T07:19:47.613Z,99.90
2022-11-30T07:22:17.345Z,99.90
2022-11-30T07:24:44.971Z,99.90
2022-11-30T07:27:12.441Z,99.90
2022-11-30T07:29:42.023Z,99.90
2022-11-30T07:32:09.200Z,99.90
2022-11-30T07:34:39.225Z,99.90
2022-11-30T07:37:06.328Z,99.90
2022-11-30T07:39:33.664Z,99.90
2022-11-30T07:42:03.689Z,99.90
2022-11-30T07:44:31.052Z,99.90
2022-11-30T07:46:58.161Z,99.90
2022-11-30T07:49:25.788Z,99.90
2022-11-30T07:51:52.821Z,99.90
2022-11-30T07:54:22.416Z,99.90
2022-11-30T07:56:52.242Z,99.90
2022-11-30T07:59:21.872Z,99.90
2022-11-30T08:01:49.154Z,99.90
2022-11-30T08:04:16.807Z,99.90
2022-11-30T08:06:43.866Z,99.90
2022-11-30T08:09:15.319Z,99.90
2022-11-30T08:11:48.534Z,99.90
2022-11-30T08:14:18.160Z,99.90
2022-11-30T08:16:45.280Z,99.90
2022-11-30T08:19:12.996Z,99.90
2022-11-30T08:21:42.570Z,99.90
2022-11-30T08:24:12.725Z,99.90
2022-11-30T08:26:42.412Z,99.90
2022-11-30T08:29:11.946Z,99.90
2022-11-30T08:31:39.250Z,99.90
2022-11-30T08:34:15.521Z,99.90
2022-11-30T08:36:48.880Z,99.90
2022-11-30T08:39:21.504Z,99.90
2022-11-30T08:41:48.543Z,99.90
2022-11-30T08:44:15.966Z,99.90
2022-11-30T08:46:51.504Z,99.90
2022-11-30T08:49:24.095Z,99.90
2022-11-30T08:52:16.428Z,99.90
2022-11-30T08:54:51.106Z,99.90
2022-11-30T08:57:20.732Z,99.90
2022-11-30T08:59:48.750Z,99.90
2022-11-30T09:02:18.590Z,99.90
2022-11-30T09:04:48.380Z,99.90
2022-11-30T09:07:15.442Z,99.90
2022-11-30T09:09:45.045Z,99.90
2022-11-30T09:12:12.270Z,99.90
2022-11-30T09:14:41.820Z,99.90
2022-11-30T09:17:09.181Z,99.90
2022-11-30T09:19:37.012Z,99.90
2022-11-30T09:22:04.155Z,99.90
2022-11-30T09:24:34.075Z,99.90
2022-11-30T09:27:01.472Z,99.90
2022-11-30T09:29:28.876Z,99.90
2022-11-30T09:31:56.002Z,99.90
2022-11-30T09:34:23.660Z,99.90
2022-11-30T09:36:53.192Z,99.90
2022-11-30T09:39:23.026Z,99.90
2022-11-30T09:42:12.073Z,99.90
2022-11-30T09:45:00.768Z,99.90
2022-11-30T09:47:57.917Z,99.90
2022-11-30T09:50:29.794Z,99.90
2022-11-30T09:53:09.094Z,99.90
2022-11-30T09:55:42.643Z,99.90
2022-11-30T09:58:22.134Z,99.90
2022-11-30T10:00:51.822Z,99.90
2022-11-30T10:03:23.380Z,99.90
2022-11-30T10:06:08.444Z,99.90
2022-11-30T10:08:46.043Z,99.90
2022-11-30T10:11:56.194Z,99.90
2022-11-30T10:14:42.405Z,99.80
2022-11-30T10:17:15.616Z,99.30
2022-11-30T10:19:52.069Z,98.10
2022-11-30T10:22:47.436Z,97.30
2022-11-30T10:25:23.977Z,97.10
2022-11-30T10:28:08.162Z,96.80
2022-11-30T10:30:49.051Z,96.70
2022-11-30T10:33:19.247Z,96.00
2022-11-30T10:35:53.109Z,95.30
2022-11-30T10:38:33.075Z,95.10
2022-11-30T10:41:15.584Z,94.80
2022-11-30T10:44:04.875Z,95.00
2022-11-30T10:46:37.258Z,94.70
2022-11-30T10:49:07.926Z,94.60
2022-11-30T10:51:37.881Z,94.30
2022-11-30T10:54:19.403Z,94.20
2022-11-30T10:56:47.438Z,94.70
2022-11-30T10:59:42.560Z,95.10
2022-11-30T11:02:40.525Z,95.30
2022-11-30T11:05:27.214Z,95.00
2022-11-30T11:08:06.350Z,94.90
2022-11-30T11:10:42.740Z,95.10
2022-11-30T11:13:37.193Z,95.20
2022-11-30T11:16:06.408Z,95.60
2022-11-30T11:18:35.517Z,96.50
2022-11-30T11:21:07.852Z,97.40
2022-11-30T11:23:35.050Z,99.90
2022-11-30T11:26:03.736Z,99.90
2022-11-30T11:28:31.884Z,99.90
2022-11-30T11:30:59.594Z,99.90
2022-11-30T11:33:28.572Z,99.90
2022-11-30T11:36:14.148Z,99.90
2022-11-30T11:38:45.895Z,99.90
2022-11-30T11:41:29.763Z,99.90
2022-11-30T11:44:00.386Z,99.90
2022-11-30T11:46:31.872Z,99.90
2022-11-30T11:49:03.107Z,99.90
2022-11-30T11:51:40.002Z,99.90
2022-11-30T11:54:15.826Z,99.90
2022-11-30T11:56:44.390Z,99.90
2022-11-30T11:59:11.689Z,99.90
2022-11-30T12:02:13.815Z,99.90
2022-11-30T12:04:50.659Z,99.90
2022-11-30T12:07:26.160Z,99.90
2022-11-30T12:10:51.111Z,99.90
2022-11-30T12:13:19.488Z,99.90
2022-11-30T12:16:08.478Z,99.90
2022-11-30T12:18:51.957Z,99.90
2022-11-30T12:21:28.072Z,99.90
2022-11-30T12:24:31.161Z,99.90
2022-11-30T12:27:07.776Z,99.90
2022-11-30T12:30:12.498Z,99.90
2022-11-30T12:33:10.821Z,99.90
2022-11-30T12:36:17.865Z,99.90
2022-11-30T12:39:04.621Z,99.90
2022-11-30T12:41:50.833Z,99.90
2022-11-30T12:44:20.848Z,99.90
2022-11-30T12:46:54.280Z,99.90
2022-11-30T12:50:09.186Z,99.90
2022-11-30T12:52:42.448Z,99.90
2022-11-30T12:55:33.048Z,99.90
2022-11-30T12:58:19.184Z,99.90
2022-11-30T13:01:04.831Z,99.90
2022-11-30T13:03:50.715Z,99.90
2022-11-30T13:06:32.862Z,99.90
2022-11-30T13:09:22.968Z,99.90
2022-11-30T13:11:56.462Z,99.90
2022-11-30T13:14:26.969Z,99.90
2022-11-30T13:17:13.439Z,99.90
2022-11-30T13:19:55.689Z,99.90
2022-11-30T13:22:30.120Z,99.90
2022-11-30T13:25:44.972Z,99.90
2022-11-30T13:28:36.617Z,99.90
2022-11-30T13:31:21.929Z,99.90
2022-11-30T13:33:55.159Z,99.90
2022-11-30T13:36:42.172Z,99.90
2022-11-30T13:39:15.624Z,99.90
2022-11-30T13:42:10.277Z,99.90
2022-11-30T13:44:46.930Z,99.90
2022-11-30T13:47:27.612Z,99.90
2022-11-30T13:50:20.967Z,99.90
2022-11-30T13:53:00.781Z,99.90
2022-11-30T13:55:43.461Z,99.90
2022-11-30T13:58:12.736Z,99.90
2022-11-30T14:00:40.134Z,99.90
2022-11-30T14:03:24.834Z,99.90
2022-11-30T14:05:59.981Z,99.90
2022-11-30T14:08:32.920Z,99.90
2022-11-30T14:11:18.847Z,99.90
2022-11-30T14:13:46.384Z,99.90
2022-11-30T14:16:28.868Z,99.90
2022-11-30T14:18:56.933Z,99.90
2022-11-30T14:21:33.002Z,99.90
2022-11-30T14:24:22.966Z,99.90
2022-11-30T14:26:51.713Z,99.90
2022-11-30T14:29:27.467Z,99.90
2022-11-30T14:32:15.542Z,99.90
2022-11-30T14:34:51.189Z,99.90
2022-11-30T14:37:22.670Z,99.90
2022-11-30T14:39:54.258Z,99.90
2022-11-30T14:42:26.527Z,99.90
2022-11-30T14:44:57.203Z,99.90
2022-11-30T14:47:24.517Z,99.90
2022-11-30T14:49:56.092Z,99.90
2022-11-30T14:52:38.416Z,99.90
2022-11-30T14:55:39.760Z,99.90
2022-11-30T14:58:30.934Z,99.90
2022-11-30T15:00:59.645Z,99.90
2022-11-30T15:03:38.882Z,99.90
2022-11-30T15:06:14.656Z,99.90
2022-11-30T15:08:47.187Z,99.90
2022-11-30T15:11:16.081Z,99.90
2022-11-30T15:14:10.261Z,99.90
2022-11-30T15:16:50.596Z,99.90
2022-11-30T15:19:31.004Z,99.90
2022-11-30T15:22:01.498Z,99.90
2022-11-30T15:24:29.113Z,99.90
2022-11-30T15:27:10.006Z,99.90
2022-11-30T15:29:41.241Z,99.90
2022-11-30T15:32:16.760Z,99.90
2022-11-30T15:34:57.023Z,99.90
2022-11-30T15:37:33.201Z,99.90
2022-11-30T15:40:02.470Z,99.90
2022-11-30T15:42:35.348Z,99.90
2022-11-30T15:45:34.915Z,99.90
2022-11-30T15:48:03.848Z,99.90
2022-11-30T15:50:39.990Z,99.90
2022-11-30T15:53:26.336Z,99.90
2022-11-30T15:55:58.603Z,99.90
2022-11-30T15:58:28.725Z,99.90
2022-11-30T16:01:14.852Z,99.90
2022-11-30T16:04:07.206Z,99.90
2022-11-30T16:06:46.091Z,99.90
2022-11-30T16:09:26.856Z,99.90
2022-11-30T16:11:58.674Z,99.90
2022-11-30T16:14:26.350Z,99.90
2022-11-30T16:16:55.780Z,99.90
2022-11-30T16:19:23.434Z,99.90
2022-11-30T16:21:50.620Z,99.90
2022-11-30T16:24:18.152Z,99.90
2022-11-30T16:26:52.564Z,99.90
2022-11-30T16:29:20.487Z,99.90
2022-11-30T16:31:52.239Z,99.90
2022-11-30T16:34:19.647Z,99.90
2022-11-30T16:36:46.837Z,99.90
2022-11-30T16:39:16.509Z,99.90
2022-11-30T16:41:48.432Z,99.90
2022-11-30T16:44:18.342Z,99.90
2022-11-30T16:46:45.392Z,99.90
2022-11-30T16:49:12.813Z,99.90
2022-11-30T16:51:40.286Z,99.90
2022-11-30T16:54:14.427Z,99.90
2022-11-30T16:56:44.749Z,99.90
2022-11-30T16:59:16.816Z,99.90
2022-11-30T17:01:49.948Z,99.90
2022-11-30T17:04:24.415Z,99.90
2022-11-30T17:06:57.169Z,99.90
2022-11-30T17:09:28.256Z,99.90
2022-11-30T17:11:55.753Z,99.90
2022-11-30T17:14:23.157Z,99.90
2022-11-30T17:16:50.279Z,99.90
2022-11-30T17:19:18.219Z,99.90
2022-11-30T17:21:45.245Z,99.90
2022-11-30T17:24:13.117Z,99.90
2022-11-30T17:26:40.874Z,99.90
2022-11-30T17:29:10.514Z,99.90
2022-11-30T17:31:37.627Z,99.90
2022-11-30T17:34:06.194Z,99.90
2022-11-30T17:36:35.442Z,99.90
2022-11-30T17:39:11.241Z,99.90
2022-11-30T17:41:40.848Z,99.90
2022-11-30T17:44:10.310Z,99.90
2022-11-30T17:46:38.554Z,99.90
2022-11-30T17:49:06.399Z,99.90
2022-11-30T17:51:33.716Z,99.90
2022-11-30T17:54:01.350Z,99.90
2022-11-30T17:56:28.839Z,99.90
2022-11-30T17:58:56.546Z,99.90
2022-11-30T18:01:27.289Z,99.90
2022-11-30T18:03:56.164Z,99.90
2022-11-30T18:06:23.684Z,99.90
2022-11-30T18:08:50.994Z,99.90
2022-11-30T18:11:20.901Z,99.90
2022-11-30T18:13:50.295Z,99.90
2022-11-30T18:16:46.806Z,99.90
2022-11-30T18:19:17.323Z,99.90
2022-11-30T18:21:47.023Z,99.90
2022-11-30T18:24:21.205Z,99.90
2022-11-30T18:26:52.414Z,99.90
2022-11-30T18:29:20.057Z,99.90
2022-11-30T18:31:47.135Z,99.90
2022-11-30T18:34:14.663Z,99.90
2022-11-30T18:36:42.119Z,99.90
2022-11-30T18:39:12.122Z,99.90
2022-11-30T18:41:41.574Z,99.90
2022-11-30T18:44:10.332Z,99.90
2022-11-30T18:46:37.457Z,99.90
2022-11-30T18:49:05.217Z,99.90
2022-11-30T18:51:34.981Z,99.90
2022-11-30T18:54:07.610Z,99.90
2022-11-30T18:56:37.194Z,99.90
2022-11-30T18:59:07.640Z,99.90
2022-11-30T19:01:35.564Z,99.90
2022-11-30T19:04:05.506Z,99.90
2022-11-30T19:06:33.297Z,99.90
2022-11-30T19:09:03.239Z,99.90
2022-11-30T19:11:33.437Z,99.90
2022-11-30T19:14:01.634Z,99.90
2022-11-30T19:16:30.331Z,99.90
2022-11-30T19:19:04.393Z,99.90
2022-11-30T19:21:33.044Z,99.90
2022-11-30T19:24:00.941Z,99.90
2022-11-30T19:26:28.492Z,99.90
2022-11-30T19:28:58.430Z,99.90
2022-11-30T19:31:28.893Z,99.90
2022-11-30T19:33:56.478Z,99.90
2022-11-30T19:36:26.799Z,99.90
2022-11-30T19:38:55.236Z,99.90
2022-11-30T19:41:22.388Z,99.90
2022-11-30T19:44:00.985Z,99.90
2022-11-30T19:46:30.785Z,99.90
2022-11-30T19:48:59.399Z,99.90
2022-11-30T19:51:27.558Z,99.90
2022-11-30T19:53:57.813Z,99.90
2022-11-30T19:56:25.753Z,99.90
2022-11-30T19:58:53.737Z,99.90
2022-11-30T20:01:23.349Z,99.90
2022-11-30T20:03:52.404Z,99.90
2022-11-30T20:06:20.345Z,99.90
2022-11-30T20:08:47.800Z,99.90
2022-11-30T20:11:15.653Z,99.90
2022-11-30T20:13:45.688Z,99.90
2022-11-30T20:16:15.631Z,99.90
2022-11-30T20:18:46.277Z,99.90
2022-11-30T20:21:28.048Z,99.90
2022-11-30T20:23:56.831Z,99.90
2022-11-30T20:26:28.752Z,99.90
2022-11-30T20:28:56.890Z,99.90
2022-11-30T20:31:27.591Z,99.90
2022-11-30T20:33:57.335Z,99.90
2022-11-30T20:36:24.546Z,99.90
2022-11-30T20:38:52.191Z,99.90
2022-11-30T20:41:21.718Z,99.90
2022-11-30T20:43:50.001Z,99.90
2022-11-30T20:46:19.493Z,99.90
2022-11-30T20:48:48.349Z,99.90
2022-11-30T20:51:30.719Z,99.90
2022-11-30T20:54:04.942Z,99.90
2022-11-30T20:56:33.931Z,99.90
2022-11-30T20:59:02.802Z,99.90
2022-11-30T21:01:30.191Z,99.90
2022-11-30T21:03:57.872Z,99.90
2022-11-30T21:06:25.490Z,99.90
2022-11-30T21:08:52.909Z,99.90
2022-11-30T21:11:22.794Z,99.90
2022-11-30T21:13:51.651Z,99.90
2022-11-30T21:16:27.201Z,99.90
2022-11-30T21:18:56.137Z,99.90
2022-11-30T21:21:25.062Z,99.90
2022-11-30T21:23:52.576Z,99.90
2022-11-30T21:26:28.597Z,99.90
2022-11-30T21:29:00.836Z,99.90
2022-11-30T21:31:28.135Z,99.90
2022-11-30T21:33:55.469Z,99.90
2022-11-30T21:36:23.334Z,99.90
2022-11-30T21:39:04.966Z,99.90
2022-11-30T21:41:36.773Z,99.90
2022-11-30T21:44:05.838Z,99.90
2022-11-30T21:46:35.212Z,99.90
2022-11-30T21:49:02.835Z,99.90
2022-11-30T21:51:30.458Z,99.90
2022-11-30T21:54:00.210Z,99.90
2022-11-30T21:56:31.950Z,99.90
2022-11-30T21:58:59.970Z,99.90
2022-11-30T22:01:26.962Z,99.90
2022-11-30T22:03:55.507Z,99.90
2022-11-30T22:06:26.941Z,99.90
2022-11-30T22:09:00.399Z,99.90
2022-11-30T22:11:27.583Z,99.90
2022-11-30T22:13:55.916Z,99.90
2022-11-30T22:16:24.888Z,99.90
2022-11-30T22:18:54.391Z,99.90
2022-11-30T22:21:24.920Z,99.90
2022-11-30T22:23:55.238Z,99.90
2022-11-30T22:26:33.609Z,99.90
2022-11-30T22:29:06.153Z,99.90
2022-11-30T22:31:39.210Z,99.90
2022-11-30T22:34:07.391Z,99.90
2022-11-30T22:36:37.421Z,99.90
2022-11-30T22:39:07.678Z,99.90
2022-11-30T22:41:35.026Z,99.90
2022-11-30T22:44:02.551Z,99.90
2022-11-30T22:46:32.183Z,99.90
2022-11-30T22:49:04.744Z,99.90
2022-11-30T22:51:36.376Z,99.90
2022-11-30T22:54:04.720Z,99.90
2022-11-30T22:56:34.794Z,99.90
2022-11-30T22:59:03.052Z,99.90
2022-11-30T23:01:33.469Z,99.90
2022-11-30T23:04:05.073Z,99.90
2022-11-30T23:06:33.543Z,99.90
2022-11-30T23:09:01.399Z,99.90
2022-11-30T23:11:31.522Z,99.90
2022-11-30T23:14:01.388Z,99.90
2022-11-30T23:16:28.405Z,99.90
2022-11-30T23:18:56.964Z,99.90
2022-11-30T23:21:26.005Z,99.90
2022-11-30T23:23:57.966Z,99.90
2022-11-30T23:26:27.572Z,99.90
2022-11-30T23:28:58.332Z,99.90
2022-11-30T23:31:35.124Z,99.90
2022-11-30T23:34:06.018Z,99.90
2022-11-30T23:36:34.175Z,99.90
2022-11-30T23:39:05.055Z,99.90
2022-11-30T23:41:32.603Z,99.90
2022-11-30T23:44:00.161Z,99.90
2022-11-30T23:46:27.607Z,99.90
2022-11-30T23:48:55.299Z,99.90
2022-11-30T23:51:23.168Z,99.90
2022-11-30T23:53:50.691Z,99.90
2022-11-30T23:56:21.664Z,99.90
2022-11-30T23:58:51.865Z,99.90
